sensor_id;sensor_type;location;lat;lon;timestamp;temperature;humidity
41630;DHT22;27322;49.488;8.480;2023-04-25T00:00:22;11.60;99.90
41630;DHT22;27322;49.488;8.480;2023-04-25T00:02:48;11.50;99.90
41630;DHT22;27322;49.488;8.480;2023-04-25T00:05:13;11.50;99.90
41630;DHT22;27322;49.488;8.480;2023-04-25T00:07:40;11.50;99.90
41630;DHT22;27322;49.488;8.480;2023-04-25T00:10:08;11.50;99.90
41630;DHT22;27322;49.488;8.480;2023-04-25T00:12:34;11.40;99.90
41630;DHT22;27322;49.488;8.480;2023-04-25T00:15:01;11.40;99.90
41630;DHT22;27322;49.488;8.480;2023-04-25T00:17:27;11.40;99.90
41630;DHT22;27322;49.488;8.480;2023-04-25T00:19:53;11.30;99.90
41630;DHT22;27322;49.488;8.480;2023-04-25T00:22:20;11.30;99.90
41630;DHT22;27322;49.488;8.480;2023-04-25T00:24:46;11.20;99.90
41630;DHT22;27322;49.488;8.480;2023-04-25T00:27:11;11.30;99.90
41630;DHT22;27322;49.488;8.480;2023-04-25T00:29:37;11.30;99.90
41630;DHT22;27322;49.488;8.480;2023-04-25T00:32:02;11.20;99.90
41630;DHT22;27322;49.488;8.480;2023-04-25T00:34:28;11.20;99.90
41630;DHT22;27322;49.488;8.480;2023-04-25T00:36:54;11.20;99.90
41630;DHT22;27322;49.488;8.480;2023-04-25T00:39:19;11.20;99.90
41630;DHT22;27322;49.488;8.480;2023-04-25T00:41:45;11.20;99.90
41630;DHT22;27322;49.488;8.480;2023-04-25T00:44:11;11.10;99.90
41630;DHT22;27322;49.488;8.480;2023-04-25T00:46:38;11.10;99.90
41630;DHT22;27322;49.488;8.480;2023-04-25T00:49:05;11.10;99.90
41630;DHT22;27322;49.488;8.480;2023-04-25T00:51:30;11.10;99.90
41630;DHT22;27322;49.488;8.480;2023-04-25T00:53:58;11.10;99.90
41630;DHT22;27322;49.488;8.480;2023-04-25T00:56:24;11.10;99.90
41630;DHT22;27322;49.488;8.480;2023-04-25T00:58:50;11.10;99.90
41630;DHT22;27322;49.488;8.480;2023-04-25T01:01:18;11.10;99.90
41630;DHT22;27322;49.488;8.480;2023-04-25T01:03:45;11.10;99.90
41630;DHT22;27322;49.488;8.480;2023-04-25T01:06:12;11.00;99.90
41630;DHT22;27322;49.488;8.480;2023-04-25T01:08:39;11.10;99.90
41630;DHT22;27322;49.488;8.480;2023-04-25T01:11:05;11.10;99.90
41630;DHT22;27322;49.488;8.480;2023-04-25T01:13:31;11.10;99.90
41630;DHT22;27322;49.488;8.480;2023-04-25T01:15:58;11.10;99.90
41630;DHT22;27322;49.488;8.480;2023-04-25T01:18:24;11.10;99.90
41630;DHT22;27322;49.488;8.480;2023-04-25T01:20:53;11.10;99.90
41630;DHT22;27322;49.488;8.480;2023-04-25T01:23:20;11.10;99.90
41630;DHT22;27322;49.488;8.480;2023-04-25T01:25:47;11.10;99.90
41630;DHT22;27322;49.488;8.480;2023-04-25T01:28:13;11.10;99.90
41630;DHT22;27322;49.488;8.480;2023-04-25T01:30:39;11.20;99.90
41630;DHT22;27322;49.488;8.480;2023-04-25T01:33:04;11.10;99.90
41630;DHT22;27322;49.488;8.480;2023-04-25T01:35:31;11.20;99.90
41630;DHT22;27322;49.488;8.480;2023-04-25T01:37:57;11.20;99.90
41630;DHT22;27322;49.488;8.480;2023-04-25T01:40:24;11.20;99.90
41630;DHT22;27322;49.488;8.480;2023-04-25T01:42:51;11.20;99.90
41630;DHT22;27322;49.488;8.480;2023-04-25T01:45:17;11.20;99.90
41630;DHT22;27322;49.488;8.480;2023-04-25T01:47:43;11.20;99.90
41630;DHT22;27322;49.488;8.480;2023-04-25T01:50:09;11.20;99.90
41630;DHT22;27322;49.488;8.480;2023-04-25T01:52:36;11.20;99.90
41630;DHT22;27322;49.488;8.480;2023-04-25T01:55:02;11.20;99.90
41630;DHT22;27322;49.488;8.480;2023-04-25T01:57:28;11.20;99.90
41630;DHT22;27322;49.488;8.480;2023-04-25T02:00:03;11.10;99.90
41630;DHT22;27322;49.488;8.480;2023-04-25T02:02:30;11.10;99.90
41630;DHT22;27322;49.488;8.480;2023-04-25T02:04:56;11.00;99.90
41630;DHT22;27322;49.488;8.480;2023-04-25T02:07:21;11.00;99.90
41630;DHT22;27322;49.488;8.480;2023-04-25T02:09:47;11.00;99.90
41630;DHT22;27322;49.488;8.480;2023-04-25T02:12:13;10.90;99.90
41630;DHT22;27322;49.488;8.480;2023-04-25T02:14:38;10.90;99.90
41630;DHT22;27322;49.488;8.480;2023-04-25T02:17:04;10.90;99.90
41630;DHT22;27322;49.488;8.480;2023-04-25T02:19:31;10.80;99.90
41630;DHT22;27322;49.488;8.480;2023-04-25T02:21:56;10.80;99.90
41630;DHT22;27322;49.488;8.480;2023-04-25T02:24:22;10.80;99.90
41630;DHT22;27322;49.488;8.480;2023-04-25T02:26:48;10.70;99.90
41630;DHT22;27322;49.488;8.480;2023-04-25T02:29:15;10.70;99.90
41630;DHT22;27322;49.488;8.480;2023-04-25T02:31:40;10.70;99.90
41630;DHT22;27322;49.488;8.480;2023-04-25T02:34:06;10.70;99.90
41630;DHT22;27322;49.488;8.480;2023-04-25T02:36:31;10.70;99.90
41630;DHT22;27322;49.488;8.480;2023-04-25T02:39:00;10.70;99.90
41630;DHT22;27322;49.488;8.480;2023-04-25T02:41:26;10.60;99.90
41630;DHT22;27322;49.488;8.480;2023-04-25T02:43:51;10.60;99.90
41630;DHT22;27322;49.488;8.480;2023-04-25T02:46:17;10.60;99.90
41630;DHT22;27322;49.488;8.480;2023-04-25T02:48:43;10.60;99.90
41630;DHT22;27322;49.488;8.480;2023-04-25T02:51:09;10.60;99.90
41630;DHT22;27322;49.488;8.480;2023-04-25T02:53:34;10.60;99.90
41630;DHT22;27322;49.488;8.480;2023-04-25T02:56:00;10.60;99.90
41630;DHT22;27322;49.488;8.480;2023-04-25T02:58:26;10.60;99.90
41630;DHT22;27322;49.488;8.480;2023-04-25T03:00:52;10.60;99.90
41630;DHT22;27322;49.488;8.480;2023-04-25T03:03:18;10.60;99.90
41630;DHT22;27322;49.488;8.480;2023-04-25T03:05:48;10.60;99.90
41630;DHT22;27322;49.488;8.480;2023-04-25T03:08:13;10.60;99.90
41630;DHT22;27322;49.488;8.480;2023-04-25T03:10:39;10.60;99.90
41630;DHT22;27322;49.488;8.480;2023-04-25T03:13:05;10.60;99.90
41630;DHT22;27322;49.488;8.480;2023-04-25T03:15:30;10.60;99.90
41630;DHT22;27322;49.488;8.480;2023-04-25T03:17:56;10.60;99.90
41630;DHT22;27322;49.488;8.480;2023-04-25T03:20:22;10.60;99.90
41630;DHT22;27322;49.488;8.480;2023-04-25T03:22:48;10.60;99.90
41630;DHT22;27322;49.488;8.480;2023-04-25T03:25:13;10.60;99.90
41630;DHT22;27322;49.488;8.480;2023-04-25T03:27:39;10.60;99.90
41630;DHT22;27322;49.488;8.480;2023-04-25T03:30:05;10.50;99.90
41630;DHT22;27322;49.488;8.480;2023-04-25T03:32:31;10.60;99.90
41630;DHT22;27322;49.488;8.480;2023-04-25T03:34:57;10.60;99.90
41630;DHT22;27322;49.488;8.480;2023-04-25T03:37:22;10.50;99.90
41630;DHT22;27322;49.488;8.480;2023-04-25T03:39:48;10.50;99.90
41630;DHT22;27322;49.488;8.480;2023-04-25T03:42:14;10.50;99.90
41630;DHT22;27322;49.488;8.480;2023-04-25T03:44:39;10.50;99.90
41630;DHT22;27322;49.488;8.480;2023-04-25T03:47:05;10.50;99.90
41630;DHT22;27322;49.488;8.480;2023-04-25T03:49:32;10.50;99.90
41630;DHT22;27322;49.488;8.480;2023-04-25T03:51:58;10.50;99.90
41630;DHT22;27322;49.488;8.480;2023-04-25T03:54:23;10.50;99.90
41630;DHT22;27322;49.488;8.480;2023-04-25T03:56:49;10.50;99.90
41630;DHT22;27322;49.488;8.480;2023-04-25T03:59:14;10.50;99.90
41630;DHT22;27322;49.488;8.480;2023-04-25T04:01:40;10.50;99.90
41630;DHT22;27322;49.488;8.480;2023-04-25T04:04:05;10.50;99.90
41630;DHT22;27322;49.488;8.480;2023-04-25T04:06:31;10.50;99.90
41630;DHT22;27322;49.488;8.480;2023-04-25T04:08:57;10.50;99.90
41630;DHT22;27322;49.488;8.480;2023-04-25T04:11:22;10.50;99.90
41630;DHT22;27322;49.488;8.480;2023-04-25T04:13:48;10.50;99.90
41630;DHT22;27322;49.488;8.480;2023-04-25T04:16:14;10.50;99.90
41630;DHT22;27322;49.488;8.480;2023-04-25T04:18:39;10.50;99.90
41630;DHT22;27322;49.488;8.480;2023-04-25T04:21:05;10.50;99.90
41630;DHT22;27322;49.488;8.480;2023-04-25T04:23:30;10.50;99.90
41630;DHT22;27322;49.488;8.480;2023-04-25T04:25:56;10.50;99.90
41630;DHT22;27322;49.488;8.480;2023-04-25T04:28:22;10.50;99.90
41630;DHT22;27322;49.488;8.480;2023-04-25T04:30:48;10.50;99.90
41630;DHT22;27322;49.488;8.480;2023-04-25T04:33:16;10.50;99.90
41630;DHT22;27322;49.488;8.480;2023-04-25T04:35:44;10.50;99.90
41630;DHT22;27322;49.488;8.480;2023-04-25T04:38:10;10.50;99.90
41630;DHT22;27322;49.488;8.480;2023-04-25T04:40:37;10.50;99.90
41630;DHT22;27322;49.488;8.480;2023-04-25T04:43:03;10.50;99.90
41630;DHT22;27322;49.488;8.480;2023-04-25T04:45:28;10.50;99.90
41630;DHT22;27322;49.488;8.480;2023-04-25T04:47:54;10.50;99.90
41630;DHT22;27322;49.488;8.480;2023-04-25T04:50:20;10.50;99.90
41630;DHT22;27322;49.488;8.480;2023-04-25T04:52:46;10.50;99.90
41630;DHT22;27322;49.488;8.480;2023-04-25T04:55:12;10.50;99.90
41630;DHT22;27322;49.488;8.480;2023-04-25T04:57:37;10.50;99.90
41630;DHT22;27322;49.488;8.480;2023-04-25T05:00:05;10.50;99.90
41630;DHT22;27322;49.488;8.480;2023-04-25T05:02:33;10.50;99.90
41630;DHT22;27322;49.488;8.480;2023-04-25T05:04:59;10.50;99.90
41630;DHT22;27322;49.488;8.480;2023-04-25T05:07:25;10.50;99.90
41630;DHT22;27322;49.488;8.480;2023-04-25T05:09:50;10.50;99.90
41630;DHT22;27322;49.488;8.480;2023-04-25T05:12:16;10.50;99.90
41630;DHT22;27322;49.488;8.480;2023-04-25T05:14:42;10.50;99.90
41630;DHT22;27322;49.488;8.480;2023-04-25T05:17:07;10.50;99.90
41630;DHT22;27322;49.488;8.480;2023-04-25T05:19:34;10.50;99.90
41630;DHT22;27322;49.488;8.480;2023-04-25T05:21:59;10.50;99.90
41630;DHT22;27322;49.488;8.480;2023-04-25T05:24:25;10.50;99.90
41630;DHT22;27322;49.488;8.480;2023-04-25T05:26:50;10.50;99.90
41630;DHT22;27322;49.488;8.480;2023-04-25T05:29:16;10.50;99.90
41630;DHT22;27322;49.488;8.480;2023-04-25T05:31:42;10.50;99.90
41630;DHT22;27322;49.488;8.480;2023-04-25T05:34:07;10.50;99.90
41630;DHT22;27322;49.488;8.480;2023-04-25T05:36:33;10.60;99.90
41630;DHT22;27322;49.488;8.480;2023-04-25T05:38:58;10.60;99.90
41630;DHT22;27322;49.488;8.480;2023-04-25T05:41:24;10.60;99.90
41630;DHT22;27322;49.488;8.480;2023-04-25T05:43:49;10.60;99.90
41630;DHT22;27322;49.488;8.480;2023-04-25T05:46:15;10.70;99.90
41630;DHT22;27322;49.488;8.480;2023-04-25T05:48:42;10.70;99.90
41630;DHT22;27322;49.488;8.480;2023-04-25T05:51:08;10.70;99.90
41630;DHT22;27322;49.488;8.480;2023-04-25T05:53:34;10.70;99.90
41630;DHT22;27322;49.488;8.480;2023-04-25T05:56:00;10.70;99.90
41630;DHT22;27322;49.488;8.480;2023-04-25T05:58:25;10.70;99.90
41630;DHT22;27322;49.488;8.480;2023-04-25T06:00:51;10.70;99.90
41630;DHT22;27322;49.488;8.480;2023-04-25T06:03:17;10.70;99.90
41630;DHT22;27322;49.488;8.480;2023-04-25T06:05:43;10.70;99.90
41630;DHT22;27322;49.488;8.480;2023-04-25T06:08:09;10.80;99.90
41630;DHT22;27322;49.488;8.480;2023-04-25T06:10:36;10.70;99.90
41630;DHT22;27322;49.488;8.480;2023-04-25T06:13:02;10.80;99.90
41630;DHT22;27322;49.488;8.480;2023-04-25T06:15:28;10.80;99.90
41630;DHT22;27322;49.488;8.480;2023-04-25T06:17:54;10.80;99.90
41630;DHT22;27322;49.488;8.480;2023-04-25T06:20:19;10.70;99.90
41630;DHT22;27322;49.488;8.480;2023-04-25T06:22:48;10.80;99.90
41630;DHT22;27322;49.488;8.480;2023-04-25T06:25:14;10.80;99.90
41630;DHT22;27322;49.488;8.480;2023-04-25T06:27:40;10.70;99.90
41630;DHT22;27322;49.488;8.480;2023-04-25T06:30:06;10.80;99.90
41630;DHT22;27322;49.488;8.480;2023-04-25T06:32:32;10.80;99.90
41630;DHT22;27322;49.488;8.480;2023-04-25T06:34:59;10.70;99.90
41630;DHT22;27322;49.488;8.480;2023-04-25T06:37:25;10.70;99.90
41630;DHT22;27322;49.488;8.480;2023-04-25T06:39:51;10.70;99.90
41630;DHT22;27322;49.488;8.480;2023-04-25T06:42:16;10.70;99.90
41630;DHT22;27322;49.488;8.480;2023-04-25T06:44:42;10.60;99.90
41630;DHT22;27322;49.488;8.480;2023-04-25T06:47:07;10.60;99.90
41630;DHT22;27322;49.488;8.480;2023-04-25T06:49:33;10.50;99.90
41630;DHT22;27322;49.488;8.480;2023-04-25T06:51:58;10.50;99.90
41630;DHT22;27322;49.488;8.480;2023-04-25T06:54:24;10.50;99.90
41630;DHT22;27322;49.488;8.480;2023-04-25T06:56:52;10.50;99.90
41630;DHT22;27322;49.488;8.480;2023-04-25T06:59:18;10.50;99.90
41630;DHT22;27322;49.488;8.480;2023-04-25T07:01:43;10.50;99.90
41630;DHT22;27322;49.488;8.480;2023-04-25T07:04:09;10.50;99.90
41630;DHT22;27322;49.488;8.480;2023-04-25T07:06:35;10.50;99.90
41630;DHT22;27322;49.488;8.480;2023-04-25T07:09:03;10.50;99.90
41630;DHT22;27322;49.488;8.480;2023-04-25T07:11:30;10.50;99.90
41630;DHT22;27322;49.488;8.480;2023-04-25T07:13:56;10.40;99.90
41630;DHT22;27322;49.488;8.480;2023-04-25T07:16:21;10.40;99.90
41630;DHT22;27322;49.488;8.480;2023-04-25T07:18:47;10.40;99.90
41630;DHT22;27322;49.488;8.480;2023-04-25T07:21:12;10.40;99.90
41630;DHT22;27322;49.488;8.480;2023-04-25T07:23:38;10.40;99.90
41630;DHT22;27322;49.488;8.480;2023-04-25T07:26:06;10.40;99.90
41630;DHT22;27322;49.488;8.480;2023-04-25T07:28:31;10.40;99.90
41630;DHT22;27322;49.488;8.480;2023-04-25T07:30:57;10.40;99.90
41630;DHT22;27322;49.488;8.480;2023-04-25T07:33:23;10.40;99.90
41630;DHT22;27322;49.488;8.480;2023-04-25T07:35:49;10.40;99.90
41630;DHT22;27322;49.488;8.480;2023-04-25T07:38:15;10.30;99.90
41630;DHT22;27322;49.488;8.480;2023-04-25T07:40:41;10.30;99.90
41630;DHT22;27322;49.488;8.480;2023-04-25T07:43:06;10.30;99.90
41630;DHT22;27322;49.488;8.480;2023-04-25T07:45:32;10.30;99.90
41630;DHT22;27322;49.488;8.480;2023-04-25T07:47:57;10.30;99.90
41630;DHT22;27322;49.488;8.480;2023-04-25T07:50:23;10.30;99.90
41630;DHT22;27322;49.488;8.480;2023-04-25T07:52:49;10.30;99.90
41630;DHT22;27322;49.488;8.480;2023-04-25T07:55:14;10.20;99.90
41630;DHT22;27322;49.488;8.480;2023-04-25T07:57:40;10.30;99.90
41630;DHT22;27322;49.488;8.480;2023-04-25T08:00:06;10.30;99.90
41630;DHT22;27322;49.488;8.480;2023-04-25T08:02:35;10.30;99.90
41630;DHT22;27322;49.488;8.480;2023-04-25T08:05:00;10.30;99.90
41630;DHT22;27322;49.488;8.480;2023-04-25T08:07:26;10.30;99.90
41630;DHT22;27322;49.488;8.480;2023-04-25T08:09:52;10.40;99.90
41630;DHT22;27322;49.488;8.480;2023-04-25T08:12:17;10.40;99.90
41630;DHT22;27322;49.488;8.480;2023-04-25T08:14:43;10.40;99.90
41630;DHT22;27322;49.488;8.480;2023-04-25T08:17:09;10.40;99.90
41630;DHT22;27322;49.488;8.480;2023-04-25T08:19:35;10.40;99.90
41630;DHT22;27322;49.488;8.480;2023-04-25T08:22:01;10.40;99.90
41630;DHT22;27322;49.488;8.480;2023-04-25T08:24:26;10.50;99.90
41630;DHT22;27322;49.488;8.480;2023-04-25T08:26:52;10.50;99.90
41630;DHT22;27322;49.488;8.480;2023-04-25T08:29:19;10.60;99.90
41630;DHT22;27322;49.488;8.480;2023-04-25T08:31:44;10.60;99.90
41630;DHT22;27322;49.488;8.480;2023-04-25T08:34:10;10.70;99.90
41630;DHT22;27322;49.488;8.480;2023-04-25T08:36:36;10.70;99.90
41630;DHT22;27322;49.488;8.480;2023-04-25T08:39:02;10.70;99.90
41630;DHT22;27322;49.488;8.480;2023-04-25T08:41:28;10.70;99.90
41630;DHT22;27322;49.488;8.480;2023-04-25T08:43:56;10.80;99.90
41630;DHT22;27322;49.488;8.480;2023-04-25T08:46:23;10.80;99.90
41630;DHT22;27322;49.488;8.480;2023-04-25T08:48:49;10.80;99.90
41630;DHT22;27322;49.488;8.480;2023-04-25T08:51:21;10.90;99.90
41630;DHT22;27322;49.488;8.480;2023-04-25T08:53:49;11.00;99.90
41630;DHT22;27322;49.488;8.480;2023-04-25T08:56:16;11.00;99.90
41630;DHT22;27322;49.488;8.480;2023-04-25T08:58:44;11.10;99.90
41630;DHT22;27322;49.488;8.480;2023-04-25T09:01:11;11.20;99.90
41630;DHT22;27322;49.488;8.480;2023-04-25T09:03:36;11.30;99.90
41630;DHT22;27322;49.488;8.480;2023-04-25T09:06:03;11.30;99.90
41630;DHT22;27322;49.488;8.480;2023-04-25T09:08:29;11.40;99.90
41630;DHT22;27322;49.488;8.480;2023-04-25T09:31:04;11.60;99.90
41630;DHT22;27322;49.488;8.480;2023-04-25T09:33:34;11.60;99.90
41630;DHT22;27322;49.488;8.480;2023-04-25T09:38:51;11.70;99.90
41630;DHT22;27322;49.488;8.480;2023-04-25T09:41:23;11.70;99.90
41630;DHT22;27322;49.488;8.480;2023-04-25T09:43:49;11.70;99.90
41630;DHT22;27322;49.488;8.480;2023-04-25T09:46:15;11.60;99.90
41630;DHT22;27322;49.488;8.480;2023-04-25T09:48:48;11.70;99.90
41630;DHT22;27322;49.488;8.480;2023-04-25T09:51:14;11.60;99.90
41630;DHT22;27322;49.488;8.480;2023-04-25T09:53:45;11.60;99.90
41630;DHT22;27322;49.488;8.480;2023-04-25T09:56:17;11.60;99.90
41630;DHT22;27322;49.488;8.480;2023-04-25T09:58:44;11.60;99.90
41630;DHT22;27322;49.488;8.480;2023-04-25T10:01:10;11.70;99.90
41630;DHT22;27322;49.488;8.480;2023-04-25T10:03:38;11.70;99.90
41630;DHT22;27322;49.488;8.480;2023-04-25T10:06:12;11.70;99.90
41630;DHT22;27322;49.488;8.480;2023-04-25T10:08:39;11.80;99.90
41630;DHT22;27322;49.488;8.480;2023-04-25T10:11:07;11.90;99.90
41630;DHT22;27322;49.488;8.480;2023-04-25T10:13:35;12.00;99.90
41630;DHT22;27322;49.488;8.480;2023-04-25T10:16:02;12.10;99.90
41630;DHT22;27322;49.488;8.480;2023-04-25T10:18:29;12.20;99.90
41630;DHT22;27322;49.488;8.480;2023-04-25T10:20:57;12.20;99.90
41630;DHT22;27322;49.488;8.480;2023-04-25T10:23:23;12.20;99.90
41630;DHT22;27322;49.488;8.480;2023-04-25T10:25:51;12.20;99.90
41630;DHT22;27322;49.488;8.480;2023-04-25T10:28:17;12.20;99.90
41630;DHT22;27322;49.488;8.480;2023-04-25T10:31:00;12.20;99.90
41630;DHT22;27322;49.488;8.480;2023-04-25T10:33:36;12.10;99.90
41630;DHT22;27322;49.488;8.480;2023-04-25T10:36:14;12.10;99.90
41630;DHT22;27322;49.488;8.480;2023-04-25T10:38:42;12.10;99.90
41630;DHT22;27322;49.488;8.480;2023-04-25T10:41:09;12.00;99.90
41630;DHT22;27322;49.488;8.480;2023-04-25T10:46:28;12.00;99.90
41630;DHT22;27322;49.488;8.480;2023-04-25T10:48:59;12.10;99.90
41630;DHT22;27322;49.488;8.480;2023-04-25T10:51:31;12.10;99.90
41630;DHT22;27322;49.488;8.480;2023-04-25T10:54:02;12.20;99.90
41630;DHT22;27322;49.488;8.480;2023-04-25T10:56:32;12.20;99.90
41630;DHT22;27322;49.488;8.480;2023-04-25T11:01:40;12.20;99.90
41630;DHT22;27322;49.488;8.480;2023-04-25T11:04:19;12.20;99.90
41630;DHT22;27322;49.488;8.480;2023-04-25T11:09:45;12.20;99.90
41630;DHT22;27322;49.488;8.480;2023-04-25T11:12:11;12.20;99.90
41630;DHT22;27322;49.488;8.480;2023-04-25T11:14:38;12.20;99.90
41630;DHT22;27322;49.488;8.480;2023-04-25T11:17:04;12.20;99.90
41630;DHT22;27322;49.488;8.480;2023-04-25T11:19:31;12.20;99.90
41630;DHT22;27322;49.488;8.480;2023-04-25T11:21:58;12.20;99.90
41630;DHT22;27322;49.488;8.480;2023-04-25T11:24:31;12.20;99.90
41630;DHT22;27322;49.488;8.480;2023-04-25T11:27:01;12.20;99.90
41630;DHT22;27322;49.488;8.480;2023-04-25T11:29:30;12.10;99.90
41630;DHT22;27322;49.488;8.480;2023-04-25T11:31:57;12.20;99.90
41630;DHT22;27322;49.488;8.480;2023-04-25T11:34:29;12.20;99.90
41630;DHT22;27322;49.488;8.480;2023-04-25T11:36:59;12.20;99.90
41630;DHT22;27322;49.488;8.480;2023-04-25T11:39:25;12.20;99.90
41630;DHT22;27322;49.488;8.480;2023-04-25T11:41:52;12.20;99.90
41630;DHT22;27322;49.488;8.480;2023-04-25T11:44:18;12.20;99.90
41630;DHT22;27322;49.488;8.480;2023-04-25T11:46:44;12.20;99.90
41630;DHT22;27322;49.488;8.480;2023-04-25T11:49:10;12.30;99.90
41630;DHT22;27322;49.488;8.480;2023-04-25T11:51:43;12.30;99.90
41630;DHT22;27322;49.488;8.480;2023-04-25T11:54:10;12.30;99.90
41630;DHT22;27322;49.488;8.480;2023-04-25T11:56:35;12.30;99.90
41630;DHT22;27322;49.488;8.480;2023-04-25T11:59:03;12.40;99.90
41630;DHT22;27322;49.488;8.480;2023-04-25T12:01:33;12.30;99.90
41630;DHT22;27322;49.488;8.480;2023-04-25T12:04:14;12.40;99.90
41630;DHT22;27322;49.488;8.480;2023-04-25T12:06:41;12.40;99.90
41630;DHT22;27322;49.488;8.480;2023-04-25T12:09:09;12.40;99.90
41630;DHT22;27322;49.488;8.480;2023-04-25T12:11:46;12.40;99.90
41630;DHT22;27322;49.488;8.480;2023-04-25T12:14:34;12.40;99.90
41630;DHT22;27322;49.488;8.480;2023-04-25T12:17:00;12.40;99.90
41630;DHT22;27322;49.488;8.480;2023-04-25T12:19:30;12.40;99.90
41630;DHT22;27322;49.488;8.480;2023-04-25T12:21:57;12.40;99.90
41630;DHT22;27322;49.488;8.480;2023-04-25T12:24:24;12.40;99.90
41630;DHT22;27322;49.488;8.480;2023-04-25T12:26:51;12.40;99.90
41630;DHT22;27322;49.488;8.480;2023-04-25T12:29:19;12.40;99.90
41630;DHT22;27322;49.488;8.480;2023-04-25T12:31:45;12.40;99.90
41630;DHT22;27322;49.488;8.480;2023-04-25T12:34:11;12.40;99.90
41630;DHT22;27322;49.488;8.480;2023-04-25T12:36:37;12.40;99.90
41630;DHT22;27322;49.488;8.480;2023-04-25T12:39:02;12.40;99.90
41630;DHT22;27322;49.488;8.480;2023-04-25T12:41:29;12.50;99.90
41630;DHT22;27322;49.488;8.480;2023-04-25T12:43:55;12.40;99.90
41630;DHT22;27322;49.488;8.480;2023-04-25T12:46:21;12.40;99.90
41630;DHT22;27322;49.488;8.480;2023-04-25T12:48:48;12.30;99.90
41630;DHT22;27322;49.488;8.480;2023-04-25T12:51:14;12.30;99.90
41630;DHT22;27322;49.488;8.480;2023-04-25T12:53:40;12.30;99.90
41630;DHT22;27322;49.488;8.480;2023-04-25T12:56:07;12.30;99.90
41630;DHT22;27322;49.488;8.480;2023-04-25T12:58:33;12.30;99.90
41630;DHT22;27322;49.488;8.480;2023-04-25T13:00:59;12.30;99.90
41630;DHT22;27322;49.488;8.480;2023-04-25T13:03:24;12.40;99.90
41630;DHT22;27322;49.488;8.480;2023-04-25T13:05:51;12.40;99.90
41630;DHT22;27322;49.488;8.480;2023-04-25T13:08:18;12.40;99.90
41630;DHT22;27322;49.488;8.480;2023-04-25T13:10:44;12.40;99.90
41630;DHT22;27322;49.488;8.480;2023-04-25T13:13:09;12.40;99.90
41630;DHT22;27322;49.488;8.480;2023-04-25T13:15:35;12.40;99.90
41630;DHT22;27322;49.488;8.480;2023-04-25T13:18:02;12.40;99.90
41630;DHT22;27322;49.488;8.480;2023-04-25T13:20:28;12.40;99.90
41630;DHT22;27322;49.488;8.480;2023-04-25T13:22:54;12.40;99.90
41630;DHT22;27322;49.488;8.480;2023-04-25T13:25:20;12.40;99.90
41630;DHT22;27322;49.488;8.480;2023-04-25T13:27:47;12.40;99.90
41630;DHT22;27322;49.488;8.480;2023-04-25T13:30:13;12.40;99.90
41630;DHT22;27322;49.488;8.480;2023-04-25T13:32:39;12.40;99.90
41630;DHT22;27322;49.488;8.480;2023-04-25T13:35:07;12.40;99.90
41630;DHT22;27322;49.488;8.480;2023-04-25T13:37:33;12.40;99.90
41630;DHT22;27322;49.488;8.480;2023-04-25T13:40:00;12.50;99.90
41630;DHT22;27322;49.488;8.480;2023-04-25T13:42:26;12.50;99.90
41630;DHT22;27322;49.488;8.480;2023-04-25T13:44:51;12.40;99.90
41630;DHT22;27322;49.488;8.480;2023-04-25T13:47:17;12.40;99.90
41630;DHT22;27322;49.488;8.480;2023-04-25T13:49:42;12.40;99.90
41630;DHT22;27322;49.488;8.480;2023-04-25T13:52:08;12.40;99.90
41630;DHT22;27322;49.488;8.480;2023-04-25T13:54:33;12.40;99.90
41630;DHT22;27322;49.488;8.480;2023-04-25T13:56:59;12.40;99.90
41630;DHT22;27322;49.488;8.480;2023-04-25T13:59:25;12.40;99.90
41630;DHT22;27322;49.488;8.480;2023-04-25T14:01:51;12.40;99.90
41630;DHT22;27322;49.488;8.480;2023-04-25T14:04:17;12.40;99.90
41630;DHT22;27322;49.488;8.480;2023-04-25T14:06:42;12.40;99.90
41630;DHT22;27322;49.488;8.480;2023-04-25T14:09:08;12.40;99.90
41630;DHT22;27322;49.488;8.480;2023-04-25T14:11:36;12.40;99.90
41630;DHT22;27322;49.488;8.480;2023-04-25T14:14:02;12.40;99.90
41630;DHT22;27322;49.488;8.480;2023-04-25T14:16:30;12.40;99.90
41630;DHT22;27322;49.488;8.480;2023-04-25T14:18:59;12.40;99.90
41630;DHT22;27322;49.488;8.480;2023-04-25T14:21:25;12.40;99.90
41630;DHT22;27322;49.488;8.480;2023-04-25T14:23:52;12.40;99.90
41630;DHT22;27322;49.488;8.480;2023-04-25T14:26:18;12.40;99.90
41630;DHT22;27322;49.488;8.480;2023-04-25T14:28:43;12.40;99.90
41630;DHT22;27322;49.488;8.480;2023-04-25T14:31:09;12.40;99.90
41630;DHT22;27322;49.488;8.480;2023-04-25T14:33:35;12.40;99.90
41630;DHT22;27322;49.488;8.480;2023-04-25T14:36:00;12.30;99.90
41630;DHT22;27322;49.488;8.480;2023-04-25T14:38:26;12.30;99.90
41630;DHT22;27322;49.488;8.480;2023-04-25T14:40:52;12.30;99.90
41630;DHT22;27322;49.488;8.480;2023-04-25T14:43:19;12.30;99.90
41630;DHT22;27322;49.488;8.480;2023-04-25T14:45:44;12.30;99.90
41630;DHT22;27322;49.488;8.480;2023-04-25T14:48:10;12.30;99.90
41630;DHT22;27322;49.488;8.480;2023-04-25T14:50:36;12.30;99.90
41630;DHT22;27322;49.488;8.480;2023-04-25T14:53:01;12.30;99.90
41630;DHT22;27322;49.488;8.480;2023-04-25T14:55:27;12.30;99.90
41630;DHT22;27322;49.488;8.480;2023-04-25T14:57:56;12.30;99.90
41630;DHT22;27322;49.488;8.480;2023-04-25T15:00:22;12.30;99.90
41630;DHT22;27322;49.488;8.480;2023-04-25T15:02:51;12.30;99.90
41630;DHT22;27322;49.488;8.480;2023-04-25T15:05:17;12.30;99.90
41630;DHT22;27322;49.488;8.480;2023-04-25T15:07:43;12.30;99.90
41630;DHT22;27322;49.488;8.480;2023-04-25T15:10:09;12.30;99.90
41630;DHT22;27322;49.488;8.480;2023-04-25T15:12:39;12.40;99.90
41630;DHT22;27322;49.488;8.480;2023-04-25T15:15:06;12.40;99.90
41630;DHT22;27322;49.488;8.480;2023-04-25T15:17:40;12.50;99.90
41630;DHT22;27322;49.488;8.480;2023-04-25T15:20:07;12.40;99.90
41630;DHT22;27322;49.488;8.480;2023-04-25T15:22:38;12.40;99.90
41630;DHT22;27322;49.488;8.480;2023-04-25T15:25:05;12.40;99.90
41630;DHT22;27322;49.488;8.480;2023-04-25T15:27:34;12.40;99.90
41630;DHT22;27322;49.488;8.480;2023-04-25T15:30:04;12.40;99.90
41630;DHT22;27322;49.488;8.480;2023-04-25T15:32:31;12.40;99.90
41630;DHT22;27322;49.488;8.480;2023-04-25T15:34:56;12.40;99.90
41630;DHT22;27322;49.488;8.480;2023-04-25T15:37:22;12.40;99.90
41630;DHT22;27322;49.488;8.480;2023-04-25T15:39:47;12.40;99.90
41630;DHT22;27322;49.488;8.480;2023-04-25T15:42:13;12.40;99.90
41630;DHT22;27322;49.488;8.480;2023-04-25T15:44:38;12.40;99.90
41630;DHT22;27322;49.488;8.480;2023-04-25T15:47:04;12.40;99.90
41630;DHT22;27322;49.488;8.480;2023-04-25T15:49:30;12.40;99.90
41630;DHT22;27322;49.488;8.480;2023-04-25T15:51:55;12.40;99.70
41630;DHT22;27322;49.488;8.480;2023-04-25T15:54:21;12.40;99.00
41630;DHT22;27322;49.488;8.480;2023-04-25T15:56:47;12.40;99.10